createdAt,value
2022-10-23T00:01:54.430Z,14.00
2022-10-23T00:04:22.672Z,14.00
2022-10-23T00:06:50.091Z,14.00
2022-10-23T00:09:19.261Z,14.00
2022-10-23T00:11:50.849Z,14.00
2022-10-23T00:14:19.720Z,14.10
2022-10-23T00:16:47.315Z,14.00
2022-10-23T00:19:14.887Z,14.00
2022-10-23T00:21:42.343Z,14.00
2022-10-23T00:26:39.398Z,14.00
2022-10-23T00:29:07.004Z,14.00
2022-10-23T00:31:34.429Z,13.90
2022-10-23T00:34:01.908Z,13.90
2022-10-23T00:36:29.377Z,13.90
2022-10-23T00:38:56.795Z,14.00
2022-10-23T00:41:28.033Z,13.90
2022-10-23T00:44:07.418Z,13.90
2022-10-23T00:46:35.873Z,13.90
2022-10-23T00:49:04.430Z,13.90
2022-10-23T00:51:34.710Z,14.00
2022-10-23T00:54:23.027Z,13.90
2022-10-23T00:56:50.211Z,13.90
2022-10-23T00:59:17.618Z,13.90
2022-10-23T01:01:45.163Z,13.90
2022-10-23T01:04:12.749Z,13.90
2022-10-23T01:07:02.665Z,13.90
2022-10-23T01:09:39.528Z,13.90
2022-10-23T01:12:13.795Z,13.90
2022-10-23T01:14:58.480Z,13.90
2022-10-23T01:17:33.990Z,13.90
2022-10-23T01:20:10.747Z,13.90
2022-10-23T01:22:41.405Z,13.90
2022-10-23T01:25:27.735Z,13.90
2022-10-23T01:28:01.557Z,13.90
2022-10-23T01:30:29.575Z,13.90
2022-10-23T01:33:00.834Z,13.90
2022-10-23T01:35:32.259Z,13.90
2022-10-23T01:38:14.816Z,13.80
2022-10-23T01:40:47.549Z,13.90
2022-10-23T01:43:18.358Z,13.80
2022-10-23T01:45:48.980Z,13.80
2022-10-23T01:48:21.617Z,13.70
2022-10-23T01:50:50.216Z,13.70
2022-10-23T01:53:19.062Z,13.60
2022-10-23T01:55:47.239Z,13.60
2022-10-23T01:58:22.096Z,13.60
2022-10-23T02:00:51.931Z,13.50
2022-10-23T02:03:20.704Z,13.50
2022-10-23T02:05:48.226Z,13.50
2022-10-23T02:08:15.699Z,13.50
2022-10-23T02:10:54.925Z,13.40
2022-10-23T02:13:28.934Z,13.50
2022-10-23T02:16:01.978Z,13.50
2022-10-23T02:18:53.556Z,13.40
2022-10-23T02:21:33.873Z,13.40
2022-10-23T02:24:03.469Z,13.40
2022-10-23T02:26:30.839Z,13.40
2022-10-23T02:29:24.850Z,13.40
2022-10-23T02:31:52.635Z,13.40
2022-10-23T02:34:20.376Z,13.30
2022-10-23T02:36:48.372Z,13.30
2022-10-23T02:39:15.985Z,13.30
2022-10-23T02:41:46.556Z,13.30
2022-10-23T02:44:14.158Z,13.20
2022-10-23T02:46:49.193Z,13.20
2022-10-23T02:49:24.805Z,13.20
2022-10-23T02:52:05.045Z,13.20
2022-10-23T02:54:41.608Z,13.20
2022-10-23T02:57:21.674Z,13.30
2022-10-23T03:00:11.637Z,13.30
2022-10-23T03:02:54.161Z,13.30
2022-10-23T03:05:24.685Z,13.30
2022-10-23T03:07:52.692Z,13.30
2022-10-23T03:10:20.427Z,13.30
2022-10-23T03:12:48.971Z,13.30
2022-10-23T03:15:17.122Z,13.30
2022-10-23T03:17:44.616Z,13.30
2022-10-23T03:20:12.356Z,13.30
2022-10-23T03:22:40.304Z,13.30
2022-10-23T03:25:08.456Z,13.30
2022-10-23T03:27:36.608Z,13.30
2022-10-23T03:30:07.065Z,13.30
2022-10-23T03:32:37.472Z,13.30
2022-10-23T03:35:06.499Z,13.30
2022-10-23T03:37:33.896Z,13.30
2022-10-23T03:40:02.266Z,13.30
2022-10-23T03:42:33.511Z,13.30
2022-10-23T03:45:01.006Z,13.30
2022-10-23T03:47:30.309Z,13.30
2022-10-23T03:49:58.401Z,13.30
2022-10-23T03:52:25.886Z,13.30
2022-10-23T03:54:53.367Z,13.30
2022-10-23T03:57:20.775Z,13.30
2022-10-23T03:59:48.487Z,13.40
2022-10-23T04:02:17.047Z,13.40
2022-10-23T04:04:44.481Z,13.40
2022-10-23T04:07:11.915Z,13.40
2022-10-23T04:09:39.920Z,13.40
2022-10-23T04:12:09.275Z,13.40
2022-10-23T04:14:36.793Z,13.30
2022-10-23T04:17:04.240Z,13.30
2022-10-23T04:19:31.970Z,13.30
2022-10-23T04:21:59.660Z,13.40
2022-10-23T04:24:27.240Z,13.40
2022-10-23T04:26:54.750Z,13.40
2022-10-23T04:29:25.137Z,13.40
2022-10-23T04:31:53.146Z,13.40
2022-10-23T04:34:20.709Z,13.40
2022-10-23T04:37:02.104Z,13.40
2022-10-23T04:39:38.352Z,13.50
2022-10-23T04:42:06.227Z,13.50
2022-10-23T04:44:33.650Z,13.50
2022-10-23T04:47:01.252Z,13.50
2022-10-23T04:49:29.012Z,13.50
2022-10-23T05:01:59.246Z,13.50
2022-10-23T05:04:26.940Z,13.50
2022-10-23T05:07:18.277Z,13.50
2022-10-23T05:13:13.663Z,13.50
2022-10-23T05:18:25.550Z,13.60
2022-10-23T05:20:56.878Z,13.50
2022-10-23T05:23:46.302Z,13.50
2022-10-23T05:26:16.316Z,13.50
2022-10-23T05:28:46.643Z,13.50
2022-10-23T05:31:25.465Z,13.60
2022-10-23T05:34:17.243Z,13.60
2022-10-23T05:36:45.872Z,13.60
2022-10-23T05:39:15.436Z,13.60
2022-10-23T05:41:43.112Z,13.50
2022-10-23T05:44:12.346Z,13.60
2022-10-23T05:46:58.504Z,13.60
2022-10-23T05:49:44.620Z,13.60
2022-10-23T05:52:39.361Z,13.60
2022-10-23T05:56:05.823Z,13.60
2022-10-23T05:58:54.222Z,13.60
2022-10-23T06:01:51.080Z,13.60
2022-10-23T06:04:34.650Z,13.60
2022-10-23T06:07:30.197Z,13.60
2022-10-23T06:10:39.314Z,13.60
2022-10-23T06:13:09.214Z,13.60
2022-10-23T06:15:37.521Z,13.60
2022-10-23T06:18:19.284Z,13.60
2022-10-23T06:20:54.630Z,13.50
2022-10-23T06:23:25.823Z,13.50
2022-10-23T06:26:25.618Z,13.50
2022-10-23T06:29:07.839Z,13.50
2022-10-23T06:31:36.541Z,13.50
2022-10-23T06:34:06.129Z,13.40
2022-10-23T06:36:33.884Z,13.40
2022-10-23T06:39:22.188Z,13.40
2022-10-23T06:42:00.715Z,13.30
2022-10-23T06:44:46.677Z,13.30
2022-10-23T06:47:22.024Z,13.30
2022-10-23T06:50:11.707Z,13.30
2022-10-23T06:52:47.397Z,13.20
2022-10-23T06:55:17.932Z,13.30
2022-10-23T06:57:46.886Z,13.20
2022-10-23T07:00:14.764Z,13.20
2022-10-23T07:02:49.648Z,13.20
2022-10-23T07:05:17.761Z,13.20
2022-10-23T07:07:45.532Z,13.20
2022-10-23T07:10:17.291Z,13.30
2022-10-23T07:12:49.003Z,13.20
2022-10-23T07:15:35.508Z,13.20
2022-10-23T07:18:04.919Z,13.20
2022-10-23T07:20:49.635Z,13.20
2022-10-23T07:23:17.587Z,13.20
2022-10-23T07:25:45.914Z,13.20
2022-10-23T07:28:21.222Z,13.20
2022-10-23T07:30:59.207Z,13.20
2022-10-23T07:33:40.590Z,13.20
2022-10-23T07:36:15.848Z,13.20
2022-10-23T07:38:44.927Z,13.20
2022-10-23T07:41:13.278Z,13.20
2022-10-23T07:43:41.437Z,13.20
2022-10-23T07:46:10.028Z,13.20
2022-10-23T07:48:39.985Z,13.20
2022-10-23T07:51:11.361Z,13.20
2022-10-23T07:53:43.836Z,13.10
2022-10-23T07:56:29.937Z,13.20
2022-10-23T07:59:38.036Z,13.10
2022-10-23T08:02:18.657Z,13.10
2022-10-23T08:04:48.754Z,13.10
2022-10-23T08:07:36.367Z,13.20
2022-10-23T08:10:04.093Z,13.10
2022-10-23T08:12:32.385Z,13.10
2022-10-23T08:14:59.962Z,13.10
2022-10-23T08:17:35.525Z,13.10
2022-10-23T08:20:11.190Z,13.10
2022-10-23T08:22:43.003Z,13.10
2022-10-23T08:25:11.887Z,13.10
2022-10-23T08:27:39.402Z,13.10
2022-10-23T08:30:07.179Z,13.10
2022-10-23T08:32:34.588Z,13.10
2022-10-23T08:35:03.597Z,13.00
2022-10-23T08:37:33.148Z,13.10
2022-10-23T08:40:00.691Z,13.10
2022-10-23T08:42:48.614Z,13.10
2022-10-23T08:45:28.789Z,13.10
2022-10-23T08:48:13.659Z,13.00
2022-10-23T08:51:06.462Z,13.00
2022-10-23T08:53:41.233Z,13.00
2022-10-23T08:56:14.456Z,13.00
2022-10-23T08:58:46.420Z,13.00
2022-10-23T09:01:32.673Z,13.00
2022-10-23T09:04:00.790Z,13.00
2022-10-23T09:06:31.287Z,12.90
2022-10-23T09:09:13.995Z,12.90
2022-10-23T09:11:47.441Z,12.90
2022-10-23T09:14:41.193Z,12.90
2022-10-23T09:17:29.008Z,12.90
2022-10-23T09:20:05.409Z,12.90
2022-10-23T09:22:33.035Z,12.90
2022-10-23T09:25:03.404Z,12.90
2022-10-23T09:27:30.943Z,12.90
2022-10-23T09:29:59.490Z,12.90
2022-10-23T09:32:37.472Z,12.90
2022-10-23T09:35:05.870Z,12.90
2022-10-23T09:37:35.848Z,12.90
2022-10-23T09:40:15.575Z,13.00
2022-10-23T09:42:59.902Z,13.00
2022-10-23T09:45:29.413Z,13.00
2022-10-23T09:48:12.419Z,13.00
2022-10-23T09:50:48.411Z,13.00
2022-10-23T09:53:36.143Z,12.90
2022-10-23T09:56:11.884Z,13.00
2022-10-23T09:58:43.355Z,13.00
2022-10-23T10:01:23.287Z,12.90
2022-10-23T10:03:53.890Z,13.00
2022-10-23T10:06:25.348Z,13.00
2022-10-23T10:09:11.932Z,13.00
2022-10-23T10:11:54.654Z,13.10
2022-10-23T10:14:28.064Z,13.10
2022-10-23T10:17:02.654Z,13.20
2022-10-23T10:19:56.779Z,13.20
2022-10-23T10:22:41.377Z,13.30
2022-10-23T10:25:15.034Z,13.40
2022-10-23T10:27:51.762Z,13.60
2022-10-23T10:30:20.671Z,13.60
2022-10-23T10:32:48.125Z,13.70
2022-10-23T10:35:21.637Z,13.80
2022-10-23T10:37:55.113Z,13.80
2022-10-23T10:40:25.627Z,13.80
2022-10-23T10:43:03.808Z,13.80
2022-10-23T10:45:38.413Z,13.80
2022-10-23T10:48:24.615Z,13.80
2022-10-23T10:51:27.127Z,13.80
2022-10-23T10:54:13.668Z,13.80
2022-10-23T10:56:42.479Z,13.80
2022-10-23T10:59:31.276Z,13.80
2022-10-23T11:01:58.782Z,13.90
2022-10-23T11:04:26.325Z,13.80
2022-10-23T11:06:54.423Z,13.90
2022-10-23T11:09:24.444Z,13.80
2022-10-23T11:11:52.110Z,13.90
2022-10-23T11:14:21.084Z,13.80
2022-10-23T11:16:50.789Z,13.90
2022-10-23T11:19:21.384Z,13.90
2022-10-23T11:21:54.824Z,13.90
2022-10-23T11:24:34.806Z,14.00
2022-10-23T11:27:05.321Z,14.00
2022-10-23T11:29:40.350Z,14.10
2022-10-23T11:32:25.336Z,14.10
2022-10-23T11:35:02.018Z,14.20
2022-10-23T11:37:31.062Z,14.30
2022-10-23T11:40:19.035Z,14.30
2022-10-23T11:42:48.121Z,14.30
2022-10-23T11:45:35.242Z,14.30
2022-10-23T11:48:19.116Z,14.40
2022-10-23T11:50:46.587Z,14.50
2022-10-23T11:53:32.629Z,14.70
2022-10-23T11:56:00.166Z,14.80
2022-10-23T11:58:42.614Z,15.00
2022-10-23T12:01:16.101Z,15.20
2022-10-23T12:03:52.729Z,15.40
2022-10-23T12:06:23.097Z,15.50
2022-10-23T12:08:53.424Z,15.50
2022-10-23T12:11:28.989Z,15.60
2022-10-23T12:13:56.393Z,15.60
2022-10-23T12:16:34.174Z,15.50
2022-10-23T12:19:15.714Z,15.40
2022-10-23T12:21:43.986Z,15.40
2022-10-23T12:24:27.207Z,15.50
2022-10-23T12:26:54.699Z,15.50
2022-10-23T12:29:28.430Z,15.60
2022-10-23T12:32:02.303Z,15.60
2022-10-23T12:34:29.665Z,15.70
2022-10-23T12:37:15.443Z,15.80
2022-10-23T12:39:43.024Z,15.90
2022-10-23T12:42:21.628Z,15.90
2022-10-23T12:44:59.199Z,15.90
2022-10-23T12:47:26.725Z,16.00
2022-10-23T12:49:54.480Z,15.90
2022-10-23T12:52:24.617Z,16.00
2022-10-23T12:54:52.257Z,16.00
2022-10-23T12:57:23.994Z,16.10
2022-10-23T12:59:53.014Z,16.10
2022-10-23T13:02:21.877Z,16.20
2022-10-23T13:04:51.002Z,16.20
2022-10-23T13:07:20.362Z,16.30
2022-10-23T13:09:48.571Z,16.40
2022-10-23T13:12:24.503Z,16.40
2022-10-23T13:15:01.289Z,16.50
2022-10-23T13:17:39.421Z,16.50
2022-10-23T13:20:11.277Z,16.50
2022-10-23T13:22:40.250Z,16.60
2022-10-23T13:25:44.627Z,16.60
2022-10-23T13:28:17.921Z,16.60
2022-10-23T13:30:48.740Z,16.60
2022-10-23T13:33:26.337Z,16.60
2022-10-23T13:36:09.072Z,16.80
2022-10-23T13:39:12.482Z,16.80
2022-10-23T13:41:41.769Z,16.80
2022-10-23T13:44:11.815Z,16.70
2022-10-23T13:46:42.985Z,16.70
2022-10-23T13:49:10.413Z,16.70
2022-10-23T13:52:04.543Z,16.70
2022-10-23T13:54:38.634Z,16.70
2022-10-23T13:57:13.946Z,16.80
2022-10-23T14:06:14.684Z,17.20
2022-10-23T14:08:42.167Z,17.20
2022-10-23T14:11:11.083Z,17.20
2022-10-23T14:23:58.680Z,17.20
2022-10-23T14:26:54.370Z,17.20
2022-10-23T14:29:25.595Z,17.10
2022-10-23T14:31:53.131Z,17.10
2022-10-23T14:38:11.419Z,16.90
2022-10-23T14:41:03.508Z,16.90
2022-10-23T14:46:50.370Z,16.80
2022-10-23T14:49:18.155Z,16.80
2022-10-23T14:51:45.634Z,16.80
2022-10-23T14:54:42.375Z,16.70
2022-10-23T14:57:09.987Z,16.70
2022-10-23T15:02:54.324Z,16.60
2022-10-23T15:05:37.494Z,16.60
2022-10-23T15:08:04.925Z,16.60
2022-10-23T15:10:32.307Z,16.60
2022-10-23T15:12:59.756Z,16.70
2022-10-23T15:15:27.157Z,16.80
2022-10-23T15:21:45.390Z,16.80
2022-10-23T15:24:12.901Z,16.90
2022-10-23T15:26:42.852Z,17.00
2022-10-23T15:29:11.397Z,17.10
2022-10-23T15:31:40.920Z,17.10
2022-10-23T15:37:25.549Z,17.30
2022-10-23T15:39:59.742Z,17.30
2022-10-23T15:42:29.790Z,17.20
2022-10-23T15:44:57.161Z,17.10
2022-10-23T15:47:24.710Z,17.00
2022-10-23T15:49:52.120Z,16.90
2022-10-23T15:52:19.716Z,16.90
2022-10-23T15:54:47.124Z,16.70
2022-10-23T15:57:14.563Z,16.60
2022-10-23T15:59:41.959Z,16.50
2022-10-23T16:02:11.265Z,16.30
2022-10-23T16:04:38.751Z,16.20
2022-10-23T16:07:07.286Z,16.10
2022-10-23T16:09:34.684Z,16.00
2022-10-23T16:12:02.140Z,15.90
2022-10-23T16:14:32.689Z,15.80
2022-10-23T16:17:00.140Z,15.80
2022-10-23T16:19:27.489Z,15.70
2022-10-23T16:21:55.085Z,15.60
2022-10-23T16:24:22.529Z,15.50
2022-10-23T16:26:53.188Z,15.40
2022-10-23T16:29:22.162Z,15.30
2022-10-23T16:31:49.618Z,15.20
2022-10-23T16:34:17.068Z,15.00
2022-10-23T16:36:45.294Z,14.80
2022-10-23T16:39:22.716Z,14.80
2022-10-23T16:42:09.184Z,14.60
2022-10-23T16:44:59.398Z,14.50
2022-10-23T16:47:26.858Z,14.40
2022-10-23T16:49:54.280Z,14.30
2022-10-23T16:52:21.693Z,14.10
2022-10-23T16:54:49.207Z,13.90
2022-10-23T16:57:16.600Z,13.80
2022-10-23T16:59:44.189Z,13.70
2022-10-23T17:02:12.310Z,13.60
2022-10-23T17:04:39.891Z,13.40
2022-10-23T17:07:07.368Z,13.30
2022-10-23T17:09:35.793Z,13.20
2022-10-23T17:12:03.346Z,13.00
2022-10-23T17:14:30.776Z,12.80
2022-10-23T17:17:01.079Z,12.80
2022-10-23T17:19:47.076Z,12.60
2022-10-23T17:22:15.036Z,12.50
2022-10-23T17:24:44.313Z,12.40
2022-10-23T17:27:13.885Z,12.30
2022-10-23T19:26:37.125Z,10.70
2022-10-23T19:29:05.599Z,10.60
2022-10-23T19:31:33.249Z,10.60
2022-10-23T19:34:00.723Z,10.70
2022-10-23T19:46:39.679Z,10.80
2022-10-23T19:52:24.571Z,10.80
2022-10-23T19:54:51.959Z,10.80
2022-10-23T19:57:22.505Z,10.80
2022-10-23T20:16:56.157Z,10.90
2022-10-23T20:19:23.939Z,11.00
2022-10-23T20:36:04.567Z,11.20
2022-10-23T20:42:18.688Z,11.20
2022-10-23T20:48:03.663Z,11.30
2022-10-23T20:53:41.672Z,11.40
2022-10-23T21:05:38.859Z,11.40
2022-10-23T21:08:06.425Z,11.40
2022-10-23T21:10:33.883Z,11.40
2022-10-23T21:16:23.654Z,11.40
2022-10-23T21:18:53.846Z,11.50
2022-10-23T21:21:21.305Z,11.50
2022-10-23T21:23:49.925Z,11.50
2022-10-23T21:27:03.463Z,11.50
2022-10-23T21:32:13.044Z,11.50
2022-10-23T21:34:40.778Z,11.60
2022-10-23T21:57:32.379Z,11.60
2022-10-23T22:00:00.286Z,11.70
2022-10-23T22:02:28.100Z,11.90
2022-10-23T22:04:59.415Z,12.00
2022-10-23T22:07:59.332Z,12.10
2022-10-23T22:10:26.867Z,12.20
2022-10-23T22:12:55.125Z,12.30
2022-10-23T22:15:22.610Z,12.40
2022-10-23T22:17:49.979Z,12.40
2022-10-23T22:20:17.519Z,12.50
2022-10-23T22:22:45.180Z,12.50
2022-10-23T22:25:12.638Z,12.50
2022-10-23T22:28:00.037Z,12.50
2022-10-23T22:30:48.193Z,12.50
2022-10-23T22:33:15.864Z,12.50
2022-10-23T22:35:43.470Z,12.50
2022-10-23T22:38:10.918Z,12.50
2022-10-23T22:40:40.097Z,12.40
2022-10-23T22:43:10.717Z,12.40
2022-10-23T22:45:38.291Z,12.40
2022-10-23T22:48:38.331Z,12.40
2022-10-23T22:51:08.824Z,12.40
2022-10-23T22:53:36.594Z,12.30
2022-10-23T22:56:08.391Z,12.30
2022-10-23T22:58:35.994Z,12.30
2022-10-23T23:01:08.939Z,12.30
2022-10-23T23:03:37.060Z,12.30
2022-10-23T23:06:06.328Z,12.20
2022-10-23T23:08:34.567Z,12.20
2022-10-23T23:11:02.419Z,12.20
2022-10-23T23:13:30.072Z,12.10
2022-10-23T23:15:57.673Z,12.10
2022-10-23T23:18:25.466Z,12.00
2022-10-23T23:20:53.015Z,12.00
2022-10-23T23:23:20.651Z,12.00
2022-10-23T23:25:49.348Z,12.00
2022-10-23T23:28:19.457Z,12.00
2022-10-23T23:30:47.465Z,12.00
2022-10-23T23:33:16.324Z,11.90
2022-10-23T23:35:44.778Z,11.90
2022-10-23T23:38:12.666Z,11.90
2022-10-23T23:40:40.247Z,11.90
2022-10-23T23:43:07.632Z,11.90
2022-10-23T23:45:35.047Z,11.90
2022-10-23T23:48:02.497Z,12.00
2022-10-23T23:50:29.897Z,11.90
2022-10-23T23:52:57.276Z,11.90
2022-10-23T23:55:24.636Z,11.90
2022-10-23T23:57:51.989Z,12.00
